Time;durP1;ratioP1;P1;durP2;ratioP2;P2;SDS_P1;SDS_P2;PMS_P1;PMS_P2;Temp;Humidity;BMP_temperature;BMP_pressure;BME280_temperature;BME280_humidity;BME280_pressure;Samples;Min_cycle;Max_cycle;Signal;HPM_P1;HPM_P2
2021/01/18 00:02:05;;;;;;;11.43;10.32;;;;;;;0.21;91.63;95755.88;5029529;28;20053;-75
2021/01/18 00:04:30;;;;;;;13.57;12.25;;;;;;;0.47;91.13;95770.38;5030036;28;20038;-74
2021/01/18 00:06:56;;;;;;;11.63;10.45;;;;;;;0.51;91.07;95777.56;5029838;28;20038;-76
2021/01/18 00:09:21;;;;;;;10.65;9.60;;;;;;;0.39;90.77;95761.03;5030031;28;20030;-68
2021/01/18 00:11:47;;;;;;;10.10;8.30;;;;;;;0.44;90.96;95784.69;5031858;28;20025;-75
2021/01/18 00:14:12;;;;;;;11.68;10.60;;;;;;;0.68;89.96;95769.84;5028809;28;20041;-74
2021/01/18 00:16:37;;;;;;;8.02;7.22;;;;;;;0.47;90.20;95770.38;5028866;28;20065;-73
2021/01/18 00:19:03;;;;;;;9.57;8.60;;;;;;;0.39;90.67;95770.69;5030020;28;20036;-76
2021/01/18 00:21:28;;;;;;;8.82;8.02;;;;;;;0.40;90.29;95772.28;5028609;28;20535;-76
2021/01/18 00:23:53;;;;;;;10.48;9.48;;;;;;;0.37;90.58;95767.50;5031982;28;20420;-75
2021/01/18 00:26:19;;;;;;;12.32;10.15;;;;;;;0.67;89.16;95777.94;5029768;28;20041;-76
2021/01/18 00:28:45;;;;;;;9.80;8.90;;;;;;;0.43;90.19;95772.66;5029788;28;20030;-75
2021/01/18 00:31:10;;;;;;;8.40;7.57;;;;;;;0.51;89.15;95789.81;5029410;28;20437;-76
2021/01/18 00:33:36;;;;;;;10.48;9.48;;;;;;;0.61;88.77;95760.47;5029716;28;20033;-75
2021/01/18 00:36:03;;;;;;;6.78;6.07;;;;;;;0.51;89.48;95798.50;5032018;28;20049;-75
2021/01/18 00:38:28;;;;;;;8.77;7.95;;;;;;;0.59;88.58;95775.63;5028532;28;20041;-76
2021/01/18 00:40:53;;;;;;;9.85;8.85;;;;;;;0.90;88.07;95777.94;5030061;28;20042;-77
2021/01/18 00:43:19;;;;;;;6.85;5.97;;;;;;;0.64;89.11;95783.59;5029716;28;20045;-76
2021/01/18 00:45:44;;;;;;;6.40;5.80;;;;;;;0.61;88.97;95786.66;5028831;28;20479;-76
2021/01/18 00:48:10;;;;;;;8.98;8.18;;;;;;;0.88;88.28;95785.25;5030592;28;20021;-75
2021/01/18 00:50:35;;;;;;;7.03;6.32;;;;;;;0.73;87.87;95787.50;5030156;28;20049;-76
2021/01/18 00:53:01;;;;;;;6.93;5.38;;;;;;;0.54;89.38;95799.88;5029886;28;20499;-76
2021/01/18 00:55:26;;;;;;;8.85;8.05;;;;;;;0.69;88.38;95797.63;5030271;28;20119;-76
2021/01/18 00:57:52;;;;;;;8.70;7.90;;;;;;;0.78;88.55;95796.28;5029448;28;20094;-76
2021/01/18 01:00:23;;;;;;;7.93;7.13;;;;;;;0.73;88.75;95811.06;5032058;28;20056;-79
2021/01/18 01:02:50;;;;;;;7.90;7.20;;;;;;;0.73;88.31;95798.78;5030328;28;20041;-78
2021/01/18 01:05:21;;;;;;;8.15;6.50;;;;;;;0.51;89.24;95802.91;5030189;28;20033;-77
2021/01/18 01:07:54;;;;;;;7.18;5.88;;;;;;;0.50;89.54;95809.97;5029956;28;20202;-78
2021/01/18 01:10:24;;;;;;;7.63;6.93;;;;;;;0.64;88.69;95804.56;5030188;28;20498;-79
2021/01/18 01:12:54;;;;;;;6.47;5.97;;;;;;;0.58;89.00;95810.69;5029889;28;20044;-78
2021/01/18 01:15:20;;;;;;;7.30;6.60;;;;;;;0.51;88.92;95798.50;5030779;28;20029;-78
2021/01/18 01:17:46;;;;;;;7.03;6.30;;;;;;;0.43;89.78;95818.97;5028782;28;20455;-78
2021/01/18 01:20:13;;;;;;;5.95;5.40;;;;;;;0.49;89.68;95821.47;5029987;28;20073;-76
2021/01/18 01:22:39;;;;;;;7.60;6.88;;;;;;;0.65;88.95;95806.16;5029848;28;20045;-77
2021/01/18 01:25:06;;;;;;;7.00;6.28;;;;;;;0.57;89.36;95820.38;5029657;28;20045;-78
2021/01/18 01:27:32;;;;;;;7.20;6.55;;;;;;;0.55;89.00;95792.81;5028439;28;20884;-76
2021/01/18 01:29:57;;;;;;;6.65;6.05;;;;;;;0.64;88.84;95821.06;5031763;28;20014;-78
2021/01/18 01:32:22;;;;;;;5.78;5.22;;;;;;;0.51;89.31;95827.31;5028533;28;20038;-79
2021/01/18 01:34:48;;;;;;;5.25;4.75;;;;;;;0.42;89.03;95806.91;5029960;28;20041;-77
2021/01/18 01:37:13;;;;;;;4.88;4.30;;;;;;;0.44;88.73;95816.09;5029458;28;20111;-75
2021/01/18 01:39:38;;;;;;;6.63;6.13;;;;;;;0.61;88.80;95810.22;5028166;28;20059;-71
2021/01/18 01:42:04;;;;;;;5.97;5.38;;;;;;;0.55;88.58;95811.13;5031888;28;20036;-73
2021/01/18 01:44:29;;;;;;;11.82;6.68;;;;;;;0.56;88.55;95816.13;5032686;28;20038;-74
2021/01/18 01:46:57;;;;;;;4.13;3.47;;;;;;;0.56;88.81;95823.19;5031488;28;20034;-77
2021/01/18 01:49:23;;;;;;;7.35;6.65;;;;;;;0.41;87.50;95742.47;5031329;28;20602;-72
2021/01/18 01:51:48;;;;;;;7.82;7.13;;;;;;;1.13;86.61;95824.31;5031382;28;20025;-74
2021/01/18 01:54:14;;;;;;;7.32;6.65;;;;;;;0.99;86.75;95809.84;5035088;28;20033;-80
2021/01/18 01:56:47;;;;;;;7.70;6.70;;;;;;;1.07;86.49;95819.97;5032924;28;20026;-80
2021/01/18 01:59:13;;;;;;;7.75;7.13;;;;;;;1.28;85.63;95827.28;5033713;28;20446;-80
2021/01/18 02:01:38;;;;;;;7.85;7.10;;;;;;;1.12;86.22;95819.28;5033630;28;20029;-80
2021/01/18 02:04:05;;;;;;;6.93;6.32;;;;;;;0.93;87.07;95829.88;5032601;28;20065;-81
2021/01/18 02:06:45;;;;;;;6.80;6.07;;;;;;;0.81;87.69;95815.16;5033566;28;20051;-81
2021/01/18 02:09:11;;;;;;;8.52;7.43;;;;;;;1.28;85.66;95793.22;5035602;28;20033;-79
2021/01/18 02:11:36;;;;;;;7.25;6.65;;;;;;;1.15;86.03;95792.66;5033173;28;20387;-80
2021/01/18 02:14:13;;;;;;;6.15;5.00;;;;;;;0.73;87.55;95811.06;5032371;28;20120;-80
2021/01/18 02:17:00;;;;;;;7.20;6.60;;;;;;;0.67;87.53;95776.09;5033394;28;20467;-80
2021/01/18 02:19:59;;;;;;;8.02;7.32;;;;;;;1.26;86.44;95807.56;5033340;28;20495;-79
2021/01/18 02:23:26;;;;;;;7.30;6.60;;;;;;;1.25;85.30;95812.00;5032105;28;20040;-81
2021/01/18 02:26:03;;;;;;;10.70;7.72;;;;;;;1.24;85.17;95793.91;5024916;28;20099;-80
2021/01/18 02:28:35;;;;;;;7.82;7.05;;;;;;;1.27;85.02;95809.16;5027752;28;20052;-79
2021/01/18 02:31:29;;;;;;;6.30;5.70;;;;;;;0.99;86.59;95815.88;5032168;28;20495;-80
2021/01/18 02:34:31;;;;;;;8.95;8.07;;;;;;;1.43;85.46;95812.91;5032130;28;20038;-81
2021/01/18 02:37:17;;;;;;;9.48;8.57;;;;;;;1.06;85.36;95807.91;5032772;28;20029;-80
2021/01/18 02:40:21;;;;;;;10.00;9.00;;;;;;;1.23;85.79;95821.13;5031795;28;20075;-80
2021/01/18 02:42:58;;;;;;;9.93;8.93;;;;;;;0.92;86.43;95823.06;5031470;28;20042;-80
2021/01/18 02:45:25;;;;;;;10.43;9.52;;;;;;;0.50;87.83;95789.03;5029614;28;20034;-74
2021/01/18 02:47:51;;;;;;;9.88;7.85;;;;;;;0.59;87.71;95797.38;5033055;28;20033;-79
2021/01/18 02:50:19;;;;;;;10.40;9.13;;;;;;;0.64;87.75;95805.34;5032594;28;20064;-80
2021/01/18 02:52:44;;;;;;;10.70;9.32;;;;;;;0.68;87.49;95818.78;5032391;28;20131;-80
2021/01/18 02:55:11;;;;;;;10.70;9.57;;;;;;;0.50;88.04;95799.50;5032029;28;20030;-80
2021/01/18 02:57:40;;;;;;;12.32;10.00;;;;;;;0.71;87.88;95820.94;5032000;28;20033;-79
2021/01/18 03:00:11;;;;;;;11.57;10.48;;;;;;;0.80;87.87;95830.06;5034105;28;20034;-79
2021/01/18 03:02:52;;;;;;;10.50;8.43;;;;;;;0.71;88.26;95828.81;5031928;28;20051;-79
2021/01/18 03:05:29;;;;;;;10.75;7.75;;;;;;;0.65;88.16;95833.13;5030892;28;20091;-80
2021/01/18 03:08:20;;;;;;;7.60;6.85;;;;;;;0.54;88.92;95846.19;5031897;28;20034;-78
2021/01/18 03:11:14;;;;;;;6.03;5.20;;;;;;;0.36;89.21;95826.91;5032121;28;20443;-80
2021/01/18 03:13:57;;;;;;;10.13;7.80;;;;;;;0.67;88.66;95823.25;5032036;28;20048;-79
2021/01/18 03:16:26;;;;;;;10.63;9.07;;;;;;;0.67;89.12;95832.91;5031861;28;20519;-79
2021/01/18 03:18:53;;;;;;;6.30;4.97;;;;;;;0.32;89.28;95833.59;5030827;28;20505;-79
2021/01/18 03:21:19;;;;;;;8.60;7.72;;;;;;;0.55;88.37;95826.84;5032454;28;20030;-79
2021/01/18 03:23:46;;;;;;;11.20;9.75;;;;;;;0.99;87.16;95838.66;5030449;28;20042;-80
2021/01/18 03:26:12;;;;;;;9.95;8.95;;;;;;;0.73;88.05;95840.66;5031792;28;20068;-80
2021/01/18 03:28:38;;;;;;;13.38;9.00;;;;;;;0.86;87.42;95844.88;5030444;28;20041;-79
2021/01/18 03:31:03;;;;;;;10.88;8.45;;;;;;;0.86;87.08;95839.66;5031948;28;20057;-79
2021/01/18 03:33:29;;;;;;;11.70;8.43;;;;;;;0.77;87.54;95846.25;5031701;28;20049;-79
2021/01/18 03:35:55;;;;;;;9.15;7.90;;;;;;;0.70;87.84;95843.72;5033582;28;20072;-79
2021/01/18 03:38:22;;;;;;;12.82;9.38;;;;;;;0.85;86.95;95824.97;5031310;28;20037;-79
2021/01/18 03:40:48;;;;;;;8.13;7.32;;;;;;;0.75;87.49;95822.91;5031843;28;20034;-79
2021/01/18 03:43:13;;;;;;;10.50;9.00;;;;;;;0.87;86.01;95809.84;5031398;28;20125;-81
2021/01/18 03:45:43;;;;;;;11.73;9.85;;;;;;;0.96;86.18;95832.03;5031547;28;20034;-80
2021/01/18 03:48:10;;;;;;;13.82;9.98;;;;;;;0.98;85.88;95824.75;5033597;28;20029;-79
2021/01/18 03:50:36;;;;;;;10.70;9.60;;;;;;;1.09;85.03;95812.69;5031312;28;20056;-79
2021/01/18 03:53:02;;;;;;;12.65;9.98;;;;;;;1.27;85.04;95830.91;5029407;28;20061;-79
2021/01/18 03:55:28;;;;;;;11.95;8.93;;;;;;;1.07;84.72;95819.16;5031161;28;20061;-80
2021/01/18 03:57:55;;;;;;;11.50;8.95;;;;;;;1.00;85.05;95827.94;5031049;28;20045;-79
2021/01/18 04:00:25;;;;;;;10.98;9.80;;;;;;;1.08;85.00;95826.81;5032444;28;20112;-78
2021/01/18 04:02:51;;;;;;;11.80;10.10;;;;;;;0.90;85.57;95812.00;5031613;28;20041;-79
2021/01/18 04:05:17;;;;;;;11.38;9.20;;;;;;;0.80;85.71;95816.19;5030833;28;20036;-77
2021/01/18 04:07:43;;;;;;;7.85;7.05;;;;;;;0.88;85.50;95831.59;5030401;28;20025;-78
2021/01/18 04:10:09;;;;;;;8.43;6.53;;;;;;;0.91;85.76;95842.38;5030886;28;20529;-79
2021/01/18 04:12:45;;;;;;;13.25;10.23;;;;;;;0.95;85.61;95843.53;5030698;28;20025;-79
2021/01/18 04:15:12;;;;;;;10.00;8.32;;;;;;;0.94;85.36;95852.44;5032717;28;20021;-77
2021/01/18 04:17:42;;;;;;;10.63;8.95;;;;;;;0.98;84.75;95816.13;5029001;28;20029;-77
2021/01/18 04:20:09;;;;;;;10.15;7.57;;;;;;;0.78;85.72;95840.00;5030334;28;20510;-77
2021/01/18 04:22:34;;;;;;;9.75;8.18;;;;;;;0.93;84.80;95834.31;5030189;28;20029;-77
2021/01/18 04:25:00;;;;;;;11.88;9.18;;;;;;;0.92;84.25;95812.56;5030311;28;20376;-77
2021/01/18 04:27:25;;;;;;;11.88;7.57;;;;;;;1.01;84.68;95845.25;5030465;28;20029;-76
2021/01/18 04:29:50;;;;;;;16.55;8.52;;;;;;;1.21;84.00;95846.75;5032534;28;20025;-76
2021/01/18 04:32:16;;;;;;;9.23;7.72;;;;;;;1.21;83.31;95846.75;5030387;28;20076;-77
2021/01/18 04:34:42;;;;;;;11.43;8.68;;;;;;;1.34;82.59;95819.53;5030421;28;20176;-76
2021/01/18 04:37:08;;;;;;;8.25;7.45;;;;;;;0.95;84.51;95830.44;5030060;28;20033;-76
2021/01/18 04:39:33;;;;;;;10.25;7.53;;;;;;;1.16;83.70;95823.06;5029237;28;20040;-76
2021/01/18 04:41:59;;;;;;;12.75;8.48;;;;;;;1.00;84.87;95850.72;5031289;28;20445;-77
2021/01/18 04:44:29;;;;;;;9.45;7.30;;;;;;;0.67;84.99;95794.44;5030331;28;20042;-77
2021/01/18 04:46:55;;;;;;;7.32;6.25;;;;;;;0.90;84.64;95840.81;5029750;28;20087;-77
2021/01/18 04:49:22;;;;;;;9.43;7.32;;;;;;;1.07;84.76;95855.84;5030050;28;20030;-77
2021/01/18 04:51:51;;;;;;;10.40;7.95;;;;;;;1.20;83.95;95860.88;5029217;28;20139;-77
2021/01/18 04:54:19;;;;;;;9.32;6.97;;;;;;;1.00;85.25;95848.91;5030975;28;20439;-77
2021/01/18 04:57:00;;;;;;;8.93;6.45;;;;;;;1.02;84.87;95865.22;5028877;28;20029;-81
2021/01/18 04:59:29;;;;;;;9.73;7.75;;;;;;;0.90;85.90;95859.13;5029828;28;20041;-76
2021/01/18 05:02:07;;;;;;;12.48;7.68;;;;;;;0.70;85.95;95837.69;5029542;28;20515;-77
2021/01/18 05:04:37;;;;;;;7.38;6.22;;;;;;;0.68;86.55;95848.41;5029954;28;20053;-75
2021/01/18 05:07:30;;;;;;;9.55;7.30;;;;;;;0.81;85.38;95833.50;5029288;28;20113;-76
2021/01/18 05:10:08;;;;;;;9.90;8.15;;;;;;;0.77;86.02;95854.13;5029713;28;20489;-76
2021/01/18 05:12:39;;;;;;;8.43;7.50;;;;;;;1.01;85.60;95876.69;5029454;28;20053;-76
2021/01/18 05:15:12;;;;;;;10.23;8.68;;;;;;;1.32;84.45;95861.69;5030674;28;20017;-76
2021/01/18 05:17:46;;;;;;;11.15;8.40;;;;;;;1.08;83.93;95813.72;5030054;28;20038;-76
2021/01/18 05:20:16;;;;;;;11.65;7.75;;;;;;;1.08;84.08;95849.63;5032023;28;20045;-77
2021/01/18 05:22:44;;;;;;;14.18;8.48;;;;;;;1.19;84.13;95870.56;5031336;28;20045;-76
2021/01/18 05:25:13;;;;;;;9.52;8.13;;;;;;;0.97;85.49;95865.09;5032334;28;20053;-79
2021/01/18 05:27:57;;;;;;;12.75;7.72;;;;;;;1.17;84.79;95875.22;5033044;28;20230;-76
2021/01/18 05:30:23;;;;;;;9.57;8.68;;;;;;;1.32;83.89;95872.16;5033197;28;20033;-69
2021/01/18 05:33:01;;;;;;;11.50;7.93;;;;;;;1.19;83.62;95859.31;5035180;28;20068;-75
2021/01/18 05:35:26;;;;;;;9.55;7.00;;;;;;;1.20;84.05;95876.63;5033305;28;20541;-79
2021/01/18 05:38:05;;;;;;;10.95;7.40;;;;;;;1.01;84.30;95875.88;5033220;28;20034;-78
2021/01/18 05:40:36;;;;;;;8.75;5.45;;;;;;;0.77;85.28;95877.69;5033064;28;20398;-78
2021/01/18 05:43:02;;;;;;;12.98;7.68;;;;;;;0.97;84.33;95854.59;5032954;28;20586;-78
2021/01/18 05:45:29;;;;;;;8.90;7.97;;;;;;;1.13;83.63;95863.63;5032815;28;20023;-75
2021/01/18 05:47:55;;;;;;;12.15;7.65;;;;;;;1.25;83.10;95879.34;5034508;28;20034;-78
2021/01/18 05:50:23;;;;;;;10.55;8.15;;;;;;;1.24;82.72;95873.31;5032996;28;20033;-77
2021/01/18 05:52:48;;;;;;;10.77;7.30;;;;;;;1.15;83.84;95889.59;5032767;28;20084;-79
2021/01/18 05:55:32;;;;;;;10.82;8.85;;;;;;;1.34;83.01;95870.13;5033041;28;20610;-75
2021/01/18 05:58:01;;;;;;;11.52;8.05;;;;;;;1.87;81.34;95882.28;5032586;28;20037;-76
2021/01/18 06:00:38;;;;;;;11.75;9.00;;;;;;;1.50;81.63;95872.06;5032862;28;20113;-75
2021/01/18 06:03:11;;;;;;;7.95;7.13;;;;;;;1.41;81.02;95835.94;5033198;28;20124;-75
2021/01/18 06:05:38;;;;;;;8.85;7.95;;;;;;;1.58;81.93;95872.72;5032297;28;20503;-75
2021/01/18 06:08:15;;;;;;;8.88;7.85;;;;;;;1.38;82.09;95878.31;5031184;28;20033;-74
2021/01/18 06:10:42;;;;;;;12.00;7.80;;;;;;;1.47;82.50;95885.63;5032470;28;20042;-74
2021/01/18 06:13:36;;;;;;;8.65;7.75;;;;;;;1.22;83.15;95892.91;5031212;28;20098;-75
2021/01/18 06:16:02;;;;;;;9.85;7.50;;;;;;;1.16;83.85;95893.81;5027402;28;20045;-77
2021/01/18 06:18:31;;;;;;;9.73;8.38;;;;;;;1.14;83.73;95885.38;5032002;28;20047;-75
2021/01/18 06:20:58;;;;;;;9.63;7.57;;;;;;;0.86;84.73;95878.13;5034135;28;20026;-76
2021/01/18 06:23:24;;;;;;;9.00;8.02;;;;;;;0.85;83.40;95832.81;5032031;28;20045;-75
2021/01/18 06:25:52;;;;;;;12.10;7.07;;;;;;;1.14;83.73;95908.97;5032192;28;20221;-75
2021/01/18 06:28:32;;;;;;;6.78;5.38;;;;;;;0.97;85.11;95901.75;5029746;28;20046;-76
2021/01/18 06:31:05;;;;;;;9.38;6.90;;;;;;;0.92;84.73;95896.41;5031892;28;20069;-76
2021/01/18 06:33:50;;;;;;;7.55;5.75;;;;;;;0.87;84.97;95909.38;5031788;28;20108;-76
2021/01/18 06:36:26;;;;;;;9.73;7.70;;;;;;;1.12;84.53;95896.06;5032594;28;20026;-74
2021/01/18 06:39:05;;;;;;;10.82;8.32;;;;;;;1.35;83.75;95899.75;5030213;28;20104;-74
2021/01/18 06:41:33;;;;;;;10.07;8.90;;;;;;;1.25;83.39;95903.72;5031939;28;20091;-75
2021/01/18 06:44:00;;;;;;;10.02;8.40;;;;;;;1.07;84.39;95892.53;5030392;28;20037;-75
2021/01/18 06:46:29;;;;;;;9.60;6.40;;;;;;;0.99;84.71;95907.56;5031685;28;20107;-76
2021/01/18 06:48:55;;;;;;;8.98;7.30;;;;;;;1.13;84.24;95900.31;5031446;28;20045;-75
2021/01/18 06:51:25;;;;;;;9.55;8.38;;;;;;;1.12;84.24;95905.75;5031738;28;20025;-78
2021/01/18 06:53:53;;;;;;;9.82;8.23;;;;;;;1.02;84.27;95895.81;5031135;28;20052;-72
2021/01/18 06:56:21;;;;;;;12.15;8.85;;;;;;;1.50;82.99;95913.22;5031671;28;20045;-78
2021/01/18 06:59:08;;;;;;;10.77;9.30;;;;;;;1.53;82.81;95920.59;5029329;28;20139;-78
2021/01/18 07:01:35;;;;;;;9.95;8.38;;;;;;;1.23;84.21;95931.19;5030092;28;20099;-74
2021/01/18 07:04:05;;;;;;;10.85;8.88;;;;;;;1.34;83.56;95930.41;5031417;28;20407;-74
2021/01/18 07:07:03;;;;;;;13.27;9.35;;;;;;;1.58;82.67;95935.66;5017916;28;20029;-74
2021/01/18 07:09:29;;;;;;;7.53;6.30;;;;;;;0.98;84.47;95931.38;5011338;28;20033;-77
2021/01/18 07:12:05;;;;;;;10.82;7.43;;;;;;;1.00;84.42;95934.56;5013590;28;20026;-74
2021/01/18 07:14:32;;;;;;;10.77;8.30;;;;;;;0.88;84.48;95907.53;5012113;28;20049;-76
2021/01/18 07:17:06;;;;;;;9.60;8.07;;;;;;;1.05;84.38;95942.53;5012269;28;20389;-74
2021/01/18 07:19:46;;;;;;;9.63;8.55;;;;;;;1.10;84.74;95944.50;5007294;28;20405;-74
2021/01/18 07:22:34;;;;;;;17.88;8.82;;;;;;;1.21;85.22;95951.56;5024012;28;20476;-74
2021/01/18 07:25:02;;;;;;;15.20;9.23;;;;;;;1.01;85.42;95951.88;5030085;28;20041;-75
2021/01/18 07:27:49;;;;;;;9.70;8.65;;;;;;;0.99;85.61;95932.97;5030479;28;20029;-73
2021/01/18 07:30:15;;;;;;;9.10;6.82;;;;;;;0.84;85.58;95966.63;5032434;28;20033;-75
2021/01/18 07:32:41;;;;;;;6.90;5.72;;;;;;;0.55;86.55;95934.97;5030734;28;20076;-73
2021/01/18 07:35:07;;;;;;;12.88;7.88;;;;;;;0.42;86.69;95922.84;5030637;28;20487;-73
2021/01/18 07:37:33;;;;;;;12.77;6.40;;;;;;;0.68;87.05;95968.84;5029114;28;20452;-73
2021/01/18 07:40:12;;;;;;;7.88;5.85;;;;;;;0.74;86.89;95972.38;5030326;28;20049;-73
2021/01/18 07:42:39;;;;;;;11.13;7.47;;;;;;;0.93;86.06;95970.53;5030309;28;20033;-73
2021/01/18 07:45:12;;;;;;;10.73;8.68;;;;;;;1.02;86.14;95984.88;5032536;28;20025;-73
2021/01/18 07:47:55;;;;;;;14.73;10.00;;;;;;;1.05;85.56;95981.84;5029101;28;20120;-75
2021/01/18 07:50:31;;;;;;;11.27;7.85;;;;;;;0.82;86.69;95990.41;5030486;28;20053;-73
2021/01/18 07:53:03;;;;;;;10.65;8.35;;;;;;;0.98;86.71;95983.75;5029312;28;20045;-73
2021/01/18 07:55:29;;;;;;;10.93;6.60;;;;;;;0.97;86.02;95993.44;5030511;28;20503;-72
2021/01/18 07:58:10;;;;;;;14.30;5.72;;;;;;;0.81;86.41;95993.25;5029582;28;20079;-73
2021/01/18 08:00:36;;;;;;;7.28;6.55;;;;;;;0.66;86.89;95973.47;5039987;23;20133;-69
2021/01/18 08:03:07;;;;;;;16.23;9.60;;;;;;;1.08;86.30;96004.19;5046871;28;20121;-69
2021/01/18 08:05:34;;;;;;;12.10;6.13;;;;;;;0.86;85.79;96002.03;5024311;28;20034;-69
2021/01/18 08:08:07;;;;;;;11.02;7.88;;;;;;;0.89;85.98;96004.22;5010297;28;20335;-68
2021/01/18 08:10:51;;;;;;;8.32;6.00;;;;;;;0.78;86.27;96012.84;5010504;28;20042;-69
2021/01/18 08:13:46;;;;;;;9.80;5.95;;;;;;;0.80;86.46;96010.78;5010136;28;20050;-69
2021/01/18 08:16:15;;;;;;;14.40;8.65;;;;;;;0.83;86.21;96023.44;5010050;28;20049;-70
2021/01/18 08:19:01;;;;;;;14.32;8.52;;;;;;;0.93;86.31;96018.47;5009936;28;20034;-68
2021/01/18 08:21:35;;;;;;;10.88;6.80;;;;;;;0.70;86.29;96029.63;5009808;28;20056;-76
2021/01/18 08:24:04;;;;;;;7.28;5.28;;;;;;;0.59;86.66;96032.97;5012182;28;20025;-70
2021/01/18 08:26:56;;;;;;;9.32;6.13;;;;;;;0.70;86.64;96029.63;5010040;28;20160;-68
2021/01/18 08:29:50;;;;;;;9.98;4.63;;;;;;;0.54;86.96;96035.47;5008031;28;20679;-68
2021/01/18 08:32:31;;;;;;;7.38;4.13;;;;;;;0.32;88.17;96040.34;5009709;28;20049;-67
2021/01/18 08:34:58;;;;;;;8.00;4.65;;;;;;;0.35;88.30;96034.66;5009893;28;20037;-68
2021/01/18 08:37:27;;;;;;;11.80;5.93;;;;;;;0.48;87.80;96046.81;5009590;28;20381;-70
2021/01/18 08:39:54;;;;;;;8.50;5.53;;;;;;;0.40;88.65;96037.41;5008533;28;20072;-71
2021/01/18 08:42:31;;;;;;;8.43;6.15;;;;;;;0.68;87.82;96038.72;5011408;28;20026;-69
2021/01/18 08:45:21;;;;;;;7.63;4.53;;;;;;;0.44;88.38;96043.81;5010303;28;20065;-71
2021/01/18 08:48:03;;;;;;;7.43;5.32;;;;;;;0.61;87.90;96048.47;5008426;28;20038;-69
2021/01/18 08:50:30;;;;;;;7.80;6.38;;;;;;;0.65;88.42;96047.81;5008686;28;20042;-68
2021/01/18 08:52:57;;;;;;;11.00;7.10;;;;;;;0.54;88.70;96055.59;5012141;28;20041;-67
2021/01/18 08:55:28;;;;;;;11.65;8.77;;;;;;;0.82;88.15;96049.84;5013905;28;20547;-67
2021/01/18 08:58:01;;;;;;;6.57;5.38;;;;;;;0.21;89.43;96030.59;5013224;28;20132;-76
2021/01/18 09:00:42;;;;;;;9.00;6.53;;;;;;;0.52;88.93;96063.69;5015699;28;20030;-72
2021/01/18 09:03:09;;;;;;;11.15;8.15;;;;;;;1.02;87.82;96055.63;5015904;28;20026;-68
2021/01/18 09:05:34;;;;;;;8.93;7.43;;;;;;;0.74;87.60;96061.41;5013541;28;20042;-67
2021/01/18 09:08:02;;;;;;;13.98;8.77;;;;;;;0.67;86.99;96055.47;5013404;28;20046;-69
2021/01/18 09:10:28;;;;;;;12.43;7.13;;;;;;;0.56;87.86;96045.69;5013648;28;20042;-69
2021/01/18 09:12:53;;;;;;;10.05;6.97;;;;;;;0.53;87.98;96060.03;5012076;28;20048;-69
2021/01/18 09:15:20;;;;;;;12.85;8.23;;;;;;;0.76;86.60;96060.16;5015431;28;20033;-69
2021/01/18 09:17:46;;;;;;;9.60;5.80;;;;;;;0.59;87.61;96064.41;5013439;28;20083;-69
2021/01/18 09:20:13;;;;;;;7.82;6.82;;;;;;;0.76;87.26;96059.38;5013416;28;20115;-69
2021/01/18 09:22:40;;;;;;;9.65;4.35;;;;;;;0.52;87.21;96074.94;5013136;28;20446;-69
2021/01/18 09:25:16;;;;;;;8.52;5.35;;;;;;;0.53;87.46;96062.66;5010964;28;20046;-69
2021/01/18 09:27:42;;;;;;;8.50;5.72;;;;;;;0.84;86.44;96068.75;5012776;28;20553;-69
2021/01/18 09:30:09;;;;;;;4.63;3.38;;;;;;;0.44;85.85;96058.72;5015083;28;20057;-68
2021/01/18 09:32:36;;;;;;;6.18;5.32;;;;;;;0.98;86.47;96064.97;5012890;28;20125;-68
2021/01/18 09:35:04;;;;;;;6.45;5.20;;;;;;;0.76;85.36;96054.94;5011575;28;20084;-68
2021/01/18 09:37:30;;;;;;;9.68;6.20;;;;;;;1.02;85.10;96058.25;5011547;28;20038;-66
2021/01/18 09:39:55;;;;;;;7.07;4.55;;;;;;;0.94;84.34;96067.22;5013037;28;20034;-66
2021/01/18 09:42:22;;;;;;;8.02;5.28;;;;;;;1.35;83.70;96070.94;5013294;28;20037;-67
2021/01/18 09:44:48;;;;;;;5.90;4.43;;;;;;;1.26;83.03;96065.19;5012783;28;20096;-68
2021/01/18 09:47:14;;;;;;;7.63;5.53;;;;;;;1.31;83.25;96075.00;5012621;28;20026;-67
2021/01/18 09:49:40;;;;;;;5.00;3.72;;;;;;;1.13;83.96;96075.88;5012699;28;20030;-67
2021/01/18 09:52:05;;;;;;;7.13;3.35;;;;;;;1.16;82.82;96067.53;5012551;28;20144;-70
2021/01/18 09:54:31;;;;;;;5.63;4.13;;;;;;;1.03;83.15;96044.16;5012866;28;20034;-66
2021/01/18 09:56:59;;;;;;;5.80;4.68;;;;;;;1.55;82.17;96058.34;5014369;28;20022;-69
2021/01/18 09:59:27;;;;;;;7.53;4.32;;;;;;;0.92;83.81;96064.03;5012001;28;20068;-66
2021/01/18 10:01:53;;;;;;;4.90;3.10;;;;;;;0.93;82.75;96044.69;5012502;28;20042;-70
2021/01/18 10:04:23;;;;;;;6.88;4.47;;;;;;;1.35;82.27;96054.41;5010839;28;20069;-70
2021/01/18 10:07:02;;;;;;;6.40;5.18;;;;;;;1.78;80.27;96057.56;5012740;28;20046;-71
2021/01/18 10:09:30;;;;;;;5.90;5.18;;;;;;;1.69;80.49;96058.94;5012952;28;20378;-70
2021/01/18 10:11:59;;;;;;;6.43;4.85;;;;;;;1.83;79.39;96054.28;5014368;28;20105;-66
2021/01/18 10:14:27;;;;;;;7.45;5.10;;;;;;;1.77;79.34;96057.81;5012265;28;20038;-73
2021/01/18 10:17:06;;;;;;;9.63;5.30;;;;;;;1.65;79.31;96046.50;5012215;28;20042;-70
2021/01/18 10:19:36;;;;;;;6.07;5.47;;;;;;;1.94;78.49;96047.44;5012569;28;20067;-70
2021/01/18 10:22:04;;;;;;;9.52;4.70;;;;;;;1.80;77.63;96044.25;5012203;28;20038;-79
2021/01/18 10:24:34;;;;;;;6.80;3.88;;;;;;;0.97;78.74;95990.00;5011009;28;20021;-69
2021/01/18 10:27:10;;;;;;;7.25;4.90;;;;;;;1.66;78.31;96054.16;5015004;28;20026;-70
2021/01/18 10:29:36;;;;;;;5.57;3.53;;;;;;;1.52;78.42;96069.25;5012114;28;20105;-73
2021/01/18 10:32:03;;;;;;;7.57;5.57;;;;;;;1.79;77.64;96053.13;5015026;28;20056;-68
2021/01/18 10:34:31;;;;;;;8.40;5.28;;;;;;;1.48;78.20;96044.50;5016602;28;20087;-69
2021/01/18 10:37:09;;;;;;;7.53;5.38;;;;;;;1.58;78.35;96066.78;5012482;28;20034;-70
2021/01/18 10:39:37;;;;;;;13.40;6.10;;;;;;;1.39;79.79;96066.06;5011617;28;20030;-69
2021/01/18 10:42:10;;;;;;;7.00;5.18;;;;;;;1.95;78.24;96054.31;5012189;28;20018;-69
2021/01/18 10:44:38;;;;;;;10.35;4.50;;;;;;;1.56;78.22;96041.59;5011937;28;20044;-70
2021/01/18 10:47:04;;;;;;;9.45;5.82;;;;;;;1.54;78.90;96054.13;5011474;28;20034;-69
2021/01/18 10:49:34;;;;;;;6.10;4.75;;;;;;;1.62;78.54;96052.19;5010712;28;20053;-66
2021/01/18 10:52:08;;;;;;;8.50;5.18;;;;;;;1.59;76.97;96058.69;5011891;28;20104;-81
2021/01/18 10:54:34;;;;;;;9.27;3.70;;;;;;;1.50;77.85;96046.94;5012078;28;20050;-65
2021/01/18 10:57:00;;;;;;;6.80;4.55;;;;;;;1.32;77.75;96045.16;5012958;28;20049;-70
2021/01/18 10:59:27;;;;;;;7.07;5.38;;;;;;;1.54;78.05;96071.69;5009760;28;20066;-68
2021/01/18 11:02:07;;;;;;;4.80;4.20;;;;;;;1.44;78.26;96068.81;5011152;28;20057;-66
2021/01/18 11:04:35;;;;;;;5.88;4.82;;;;;;;1.34;78.55;96047.56;5011387;28;20066;-68
2021/01/18 11:07:02;;;;;;;6.38;4.07;;;;;;;1.25;78.35;96062.81;5010040;28;20077;-69
2021/01/18 11:09:32;;;;;;;6.50;3.85;;;;;;;1.46;77.58;96054.44;5011613;28;20068;-74
2021/01/18 11:11:59;;;;;;;9.75;5.53;;;;;;;1.44;77.91;96038.13;5012046;28;20402;-65
2021/01/18 11:14:26;;;;;;;5.32;4.25;;;;;;;1.48;76.93;96030.59;5010939;28;20491;-73
2021/01/18 11:17:07;;;;;;;8.23;4.75;;;;;;;2.05;76.51;96049.31;5010567;28;20128;-67
2021/01/18 11:19:33;;;;;;;5.93;4.47;;;;;;;1.90;76.17;96041.88;5011229;28;20053;-66
2021/01/18 11:21:59;;;;;;;5.22;4.10;;;;;;;2.31;74.42;96042.81;5010845;28;20038;-66
2021/01/18 11:24:24;;;;;;;5.47;3.75;;;;;;;1.93;75.28;96030.13;5009673;28;20030;-70
2021/01/18 11:26:51;;;;;;;6.32;5.40;;;;;;;2.48;75.15;96033.19;5012875;28;20034;-71
2021/01/18 11:29:17;;;;;;;6.07;4.78;;;;;;;2.46;73.17;96048.38;5009839;28;20042;-70
2021/01/18 11:31:44;;;;;;;6.82;5.10;;;;;;;2.47;73.88;96042.09;5011101;28;20451;-68
2021/01/18 11:34:09;;;;;;;5.40;3.42;;;;;;;1.78;74.90;96041.03;5011210;28;20100;-67
2021/01/18 11:36:35;;;;;;;7.78;5.10;;;;;;;2.55;73.46;96025.97;5009748;28;20026;-67
2021/01/18 11:39:01;;;;;;;5.22;4.28;;;;;;;2.33;74.47;96036.28;5012623;28;20030;-67
2021/01/18 11:41:26;;;;;;;8.68;4.75;;;;;;;2.43;72.95;96022.56;5009466;28;20042;-68
2021/01/18 11:43:52;;;;;;;9.45;4.47;;;;;;;2.17;74.15;96025.69;5010980;28;20458;-69
2021/01/18 11:46:18;;;;;;;5.60;4.18;;;;;;;2.28;73.45;96014.38;5010887;28;20042;-67
2021/01/18 11:48:44;;;;;;;7.00;3.33;;;;;;;1.82;74.11;95998.41;5009401;28;20099;-68
2021/01/18 11:51:09;;;;;;;6.93;5.03;;;;;;;2.55;72.67;96018.09;5012483;28;20412;-67
2021/01/18 11:53:35;;;;;;;4.20;2.47;;;;;;;2.13;72.41;96021.91;5009080;28;20061;-67
2021/01/18 11:56:00;;;;;;;5.13;3.28;;;;;;;2.11;72.48;96013.47;5010706;28;20128;-66